Redfield, Arkansas
Current Conditions -  °F | °C
As of 7:53 AM on Monday 26 Jan 2015 (Local Time) from KLIT Reporting Station
Few Clouds Few Clouds  
Wind Chill: 31°   Ceiling: Unl
Heat Index: 35°   Visibility: 10mi
Dew Point: 29°   Wind: 5mph
Humidity: 78%   Direction: 210°SSW
Pressure: 30.15"   Gusts: NA
Location:  34.45°N, 92.18°W
Report Text: KLIT 261353Z 21004KT 10SM FEW030 02/M02 A3015 RMK AO2 SLP211 T00171017
Loading
Personal Weather Stations






























Interactive Weather Map New forecast layout! Learn more

10-Day Weather Forecast

Advertisements
Track Severe Weather on mobile